Tuesday, September 27, 2016, 4:38 AM EDT

KEZF, Fredericksburg, Shannon Airport

Location: Fredericksburg, VA, United States Lat: 38.267
Local Time: 4:38 AM EDT ( 8:38 GMT) Lon: -77.45
Time Zone: US/Eastern Elev: 85 ft

Show me the last for .
Show Decoded

2016-09-27 04:15 METAR KEZF 270815Z AUTO 00000KT 2SM RA SCT011 OVC070 19/19 A2994 RMK AO2 VIS
                 3/4V5 T01930193 =
2016-09-27 03:55 METAR KEZF 270755Z AUTO 27003KT 4SM RA SCT015 SCT038 OVC065 19/19 A2994 RMK AO2
                 T01920192 =
2016-09-27 03:35 METAR KEZF 270735Z AUTO 19003KT 4SM -RA OVC017 19/19 A2995 RMK AO2 T01910191 =
2016-09-27 03:15 METAR KEZF 270715Z AUTO 00000KT 5SM -RA OVC022 19/19 A2995 RMK AO2 T01900190 =
2016-09-27 02:55 METAR KEZF 270655Z AUTO 00000KT 10SM BKN026 BKN030 OVC040 19/19 A2996 RMK AO2
                 T01920192 =
2016-09-27 02:35 METAR KEZF 270635Z AUTO 00000KT 10SM SCT028 SCT032 BKN040 19/19 A2996 RMK AO2
                 T01900190 =
2016-09-27 02:15 METAR KEZF 270615Z AUTO 00000KT 10SM SCT034 BKN044 BKN090 19/19 A2996 RMK AO2
                 T01900190 =
2016-09-27 01:55 METAR KEZF 270555Z AUTO 00000KT 10SM SCT032 SCT075 BKN090 19/19 A2996 RMK AO2
                 T01900190 10200 20182 402120170 =
2016-09-27 01:35 METAR KEZF 270535Z AUTO 00000KT 10SM SCT032 OVC090 19/19 A2996 RMK AO2 T01900190
                 =
2016-09-27 01:15 METAR KEZF 270515Z AUTO 00000KT 10SM BKN090 19/19 A2996 RMK AO2 T01900190 =
2016-09-27 00:55 METAR KEZF 270455Z AUTO 00000KT 10SM SCT090 19/19 A2997 RMK AO2 T01900190 =
2016-09-27 00:35 METAR KEZF 270435Z AUTO 00000KT 10SM CLR 19/19 A2996 RMK AO2 T01860186 =
2016-09-27 00:15 METAR KEZF 270415Z AUTO 00000KT 10SM SCT029 19/19 A2996 RMK AO2 T01870187 =
2016-09-26 23:55 METAR KEZF 270355Z AUTO 17004KT 10SM BKN029 BKN036 19/19 A2997 RMK AO2 T01880188
                 =
2016-09-26 23:35 METAR KEZF 270335Z AUTO 17004KT 10SM OVC029 19/19 A2998 RMK AO2 T01890189 =
2016-09-26 23:15 METAR KEZF 270315Z AUTO 00000KT 10SM OVC029 19/19 A2999 RMK AO2 T01880188 =
2016-09-26 22:55 METAR KEZF 270255Z AUTO 19005KT 10SM OVC029 19/19 A2999 RMK AO2 T01860186 =
2016-09-26 22:35 METAR KEZF 270235Z AUTO 00000KT 10SM OVC029 18/18 A2999 RMK AO2 T01830183 =
2016-09-26 22:15 METAR KEZF 270215Z AUTO 00000KT 7SM SCT029 BKN039 18/18 A3000 RMK AO2 T01830183
                 =
2016-09-26 21:55 METAR KEZF 270155Z AUTO 16003KT 10SM CLR 18/18 A3000 RMK AO2 T01840184 =
2016-09-26 21:35 METAR KEZF 270135Z AUTO 15003KT 10SM CLR 19/19 A3001 RMK AO2 T01850185 =
2016-09-26 21:15 METAR KEZF 270115Z AUTO 14006KT 10SM SCT019 SCT055 BKN100 19/19 A3001 RMK AO2
                 T01850185 =
2016-09-26 20:55 METAR KEZF 270055Z AUTO 16005KT 2 1/2SM RA SCT016 BKN034 OVC060 19/18 A3004 RMK
                 AO2 VIS 1V5 T01930180 =
2016-09-26 20:35 METAR KEZF 270035Z AUTO 29009KT 10SM OVC034 20/17 A3006 RMK AO2 T02000173 =
2016-09-26 20:15 METAR KEZF 270015Z AUTO 00000KT 10SM OVC034 20/17 A3003 RMK AO2 T02000173 =
2016-09-26 19:55 METAR KEZF 262355Z AUTO 00000KT 10SM OVC034 20/17 A3002 RMK AO2 T02000173 10212
                 20200 =
2016-09-26 19:35 METAR KEZF 262335Z AUTO 00000KT 10SM OVC034 20/17 A3002 RMK AO2 T02000172 =
2016-09-26 19:15 METAR KEZF 262315Z AUTO 15004KT 10SM OVC034 20/17 A3003 RMK AO2 T02020172 =
2016-09-26 18:55 METAR KEZF 262255Z AUTO 16003KT 10SM OVC034 20/17 A3003 RMK AO2 T02030171 =
2016-09-26 18:35 METAR KEZF 262235Z AUTO 15003KT 10SM OVC032 21/17 A3002 RMK AO2 T02050171 =
2016-09-26 18:15 METAR KEZF 262215Z AUTO 15004KT 10SM OVC034 21/17 A3001 RMK AO2 T02050170 =
2016-09-26 17:55 METAR KEZF 262155Z AUTO 16006KT 10SM OVC034 21/17 A3001 RMK AO2 T02060171 =
2016-09-26 17:35 METAR KEZF 262135Z AUTO 17004KT 10SM OVC034 21/17 A3002 RMK AO2 T02090169 =
2016-09-26 17:15 METAR KEZF 262115Z AUTO 16005KT 10SM OVC032 21/17 A3000 RMK AO2 T02100168 =
2016-09-26 16:55 METAR KEZF 262055Z AUTO 15009KT 10SM OVC032 21/17 A3000 RMK AO2 T02110167 =
2016-09-26 16:35 METAR KEZF 262035Z AUTO 15009KT 10SM OVC032 21/17 A3001 RMK AO2 T02110167 =
2016-09-26 16:15 METAR KEZF 262015Z AUTO 15005KT 10SM OVC032 21/17 A3003 RMK AO2 T02100168 =
2016-09-26 15:55 METAR KEZF 261955Z AUTO 15008KT 10SM OVC032 21/17 A3004 RMK AO2 T02090166 =
2016-09-26 15:35 METAR KEZF 261935Z AUTO 16006KT 10SM OVC034 21/17 A3005 RMK AO2 T02100166 =
2016-09-26 15:15 METAR KEZF 261915Z AUTO 15006KT 10SM OVC034 21/17 A3005 RMK AO2 T02100165 =
2016-09-26 14:55 METAR KEZF 261855Z AUTO 16009KT 10SM OVC034 21/16 A3006 RMK AO2 T02090163 =
2016-09-26 14:35 METAR KEZF 261835Z AUTO 15006KT 10SM OVC034 21/16 A3007 RMK AO2 T02070162 =
2016-09-26 14:15 METAR KEZF 261815Z AUTO 17006KT 10SM OVC034 21/16 A3009 RMK AO2 T02060161 =
2016-09-26 13:55 METAR KEZF 261755Z AUTO 16006KT 10SM OVC034 21/16 A3009 RMK AO2 T02050159 10206
                 20175 =
2016-09-26 13:35 METAR KEZF 261735Z AUTO 15007KT 10SM OVC032 21/16 A3010 RMK AO2 T02050160 =
2016-09-26 13:15 METAR KEZF 261715Z AUTO 17008KT 10SM OVC032 21/16 A3010 RMK AO2 T02050160 =
2016-09-26 12:55 METAR KEZF 261655Z AUTO 15006KT 10SM OVC032 21/16 A3011 RMK AO2 T02050161 =
2016-09-26 12:35 METAR KEZF 261635Z AUTO 16006KT 10SM OVC032 21/16 A3011 RMK AO2 T02050160 =
2016-09-26 12:15 METAR KEZF 261615Z AUTO 16007KT 10SM OVC032 20/16 A3012 RMK AO2 T02020160 =
2016-09-26 11:55 METAR KEZF 261555Z AUTO 18005KT 10SM OVC032 20/16 A3013 RMK AO2 T02020158 =
2016-09-26 11:35 METAR KEZF 261535Z AUTO 16007KT 10SM OVC032 20/16 A3013 RMK AO2 T02010157 =
2016-09-26 11:15 METAR KEZF 261515Z AUTO 15004KT 10SM OVC032 20/16 A3013 RMK AO2 T01960161 =
2016-09-26 10:55 METAR KEZF 261455Z AUTO 18005KT 10SM OVC030 19/16 A3014 RMK AO2 T01920160 =
2016-09-26 10:35 METAR KEZF 261435Z AUTO 16004KT 10SM OVC030 19/16 A3014 RMK AO2 T01920160 =
2016-09-26 10:15 METAR KEZF 261415Z AUTO 19003KT 10SM OVC030 19/16 A3014 RMK AO2 T01890161 =
2016-09-26 09:55 METAR KEZF 261355Z AUTO 16004KT 10SM OVC030 19/16 A3014 RMK AO2 T01860160 =
2016-09-26 09:35 METAR KEZF 261335Z AUTO 15004KT 10SM OVC030 18/16 A3013 RMK AO2 T01830157 =
2016-09-26 09:15 METAR KEZF 261315Z AUTO 15003KT 10SM OVC030 18/16 A3014 RMK AO2 T01820156 =
2016-09-26 08:55 METAR KEZF 261255Z AUTO 00000KT 10SM OVC030 18/16 A3013 RMK AO2 T01790156 =
2016-09-26 08:35 METAR KEZF 261235Z AUTO 15005KT 10SM OVC034 18/15 A3013 RMK AO2 T01770154 =
2016-09-26 08:15 METAR KEZF 261215Z AUTO 15004KT 10SM OVC036 18/15 A3013 RMK AO2 T01760152 =
2016-09-26 07:55 METAR KEZF 261155Z AUTO 17004KT 10SM OVC038 18/15 A3013 RMK AO2 T01750151 10175
                 20170 =
2016-09-26 07:35 METAR KEZF 261135Z AUTO 16004KT 10SM OVC038 17/15 A3013 RMK AO2 T01730150 =
2016-09-26 07:15 METAR KEZF 261115Z AUTO 16003KT 10SM OVC038 17/15 A3013 RMK AO2 T01720151 =
2016-09-26 06:55 METAR KEZF 261055Z AUTO 00000KT 10SM BKN040 OVC046 17/15 A3013 RMK AO2 T01710151
                 =
2016-09-26 06:35 METAR KEZF 261035Z AUTO 00000KT 10SM BKN036 BKN046 OVC055 17/15 A3013 RMK AO2
                 T01710150 =
2016-09-26 06:15 METAR KEZF 261015Z AUTO 00000KT 10SM OVC036 17/15 A3013 RMK AO2 T01720148 =
2016-09-26 05:55 METAR KEZF 260955Z AUTO 00000KT 10SM OVC036 17/15 A3013 RMK AO2 T01720151 =
2016-09-26 05:35 METAR KEZF 260935Z AUTO 00000KT 10SM OVC034 17/15 A3012 RMK AO2 T01700151 =
2016-09-26 05:15 METAR KEZF 260915Z AUTO 00000KT 10SM OVC032 17/15 A3013 RMK AO2 T01730151 =
2016-09-26 04:55 METAR KEZF 260855Z AUTO 00000KT 10SM OVC030 17/15 A3013 RMK AO2 T01730148 =

Support USWX by starting your Amazon purchase here.